Time;durP1;ratioP1;P1;durP2;ratioP2;P2;SDS_P1;SDS_P2;PMS_P1;PMS_P2;Temp;Humidity;BMP_temperature;BMP_pressure;BME280_temperature;BME280_humidity;BME280_pressure;Samples;Min_cycle;Max_cycle;Signal;HPM_P1;HPM_P2
2021/09/17 00:00:37;;;;;;;5.37;4.97;;;;;;;13.92;89.15;95674.13;5037369;28;20704;-70
2021/09/17 00:03:05;;;;;;;5.70;5.40;;;;;;;13.87;88.81;95668.59;5021909;28;20233;-69
2021/09/17 00:05:34;;;;;;;3.80;3.53;;;;;;;13.80;88.91;95667.78;5043638;28;20214;-70
2021/09/17 00:08:02;;;;;;;3.10;2.90;;;;;;;13.76;89.00;95669.22;5042214;28;20247;-71
2021/09/17 00:10:32;;;;;;;2.50;2.30;;;;;;;13.70;88.70;95670.00;5023297;28;20597;-70
2021/09/17 00:13:01;;;;;;;2.33;2.23;;;;;;;13.62;88.59;95670.22;5026075;28;20207;-70
2021/09/17 00:15:29;;;;;;;1.20;1.10;;;;;;;13.58;88.59;95669.81;5044522;28;20219;-70
2021/09/17 00:17:57;;;;;;;2.67;2.47;;;;;;;13.53;88.53;95664.31;5009290;28;20227;-70
2021/09/17 00:20:25;;;;;;;2.37;2.27;;;;;;;13.50;88.57;95661.22;5038102;28;20229;-70
2021/09/17 00:22:53;;;;;;;2.63;2.53;;;;;;;13.49;88.76;95656.94;5036963;28;20228;-70
2021/09/17 00:25:21;;;;;;;3.67;3.47;;;;;;;13.46;88.87;95655.53;5045131;28;20222;-71
2021/09/17 00:27:52;;;;;;;3.17;3.00;;;;;;;13.46;88.99;95657.38;5043936;28;20246;-70
2021/09/17 00:30:23;;;;;;;4.13;3.90;;;;;;;13.45;89.13;95655.72;5043030;28;20474;-71
2021/09/17 00:32:51;;;;;;;4.17;3.97;;;;;;;13.44;89.07;95656.72;5027426;28;20250;-72
2021/09/17 00:35:19;;;;;;;4.07;3.87;;;;;;;13.41;89.25;95654.50;5044951;28;20227;-70
2021/09/17 00:37:47;;;;;;;2.97;2.87;;;;;;;13.41;88.88;95665.09;5041328;28;20362;-69
2021/09/17 00:40:15;;;;;;;1.60;1.50;;;;;;;13.34;88.86;95663.22;5027759;28;20217;-70
2021/09/17 00:42:43;;;;;;;1.40;1.40;;;;;;;13.26;88.61;95659.97;5045437;28;20222;-69
2021/09/17 00:45:14;;;;;;;0.70;0.70;;;;;;;13.17;88.27;95667.25;5039923;28;20220;-70
2021/09/17 00:47:42;;;;;;;0.60;0.50;;;;;;;13.08;87.69;95660.50;5041668;28;20377;-70
2021/09/17 00:50:16;;;;;;;0.63;0.63;;;;;;;12.98;87.67;95667.97;5045648;28;20234;-70
2021/09/17 00:52:46;;;;;;;0.73;0.73;;;;;;;12.86;88.42;95664.28;5041974;28;20222;-69
2021/09/17 00:55:15;;;;;;;0.97;0.97;;;;;;;12.72;88.16;95664.25;5044548;28;20273;-70
2021/09/17 00:57:43;;;;;;;1.00;1.00;;;;;;;12.68;88.59;95659.53;5003611;28;1166162;-69
2021/09/17 01:00:15;;;;;;;1.53;1.43;;;;;;;12.65;88.82;95658.09;5035478;28;20222;-70
2021/09/17 01:02:43;;;;;;;1.40;1.40;;;;;;;12.60;89.43;95655.19;5042768;28;20243;-69
2021/09/17 01:05:13;;;;;;;1.83;1.73;;;;;;;12.61;89.32;95654.19;5045933;28;20236;-70
2021/09/17 01:07:42;;;;;;;1.20;1.20;;;;;;;12.60;89.20;95649.09;5027281;28;20226;-69
2021/09/17 01:10:11;;;;;;;1.37;1.27;;;;;;;12.60;89.07;95649.91;5038825;28;20219;-70
2021/09/17 01:12:40;;;;;;;2.37;2.27;;;;;;;12.54;89.51;95656.00;5052757;28;20495;-69
2021/09/17 01:15:10;;;;;;;2.03;1.93;;;;;;;12.53;89.68;95649.91;5038055;28;20249;-69
2021/09/17 01:17:41;;;;;;;2.27;2.17;;;;;;;12.53;89.38;95643.78;5038248;28;20758;-69
2021/09/17 01:20:13;;;;;;;1.93;1.83;;;;;;;12.52;89.41;95642.94;5041530;28;20221;-70
2021/09/17 01:22:43;;;;;;;1.97;1.87;;;;;;;12.50;89.31;95638.88;5042493;28;20229;-70
2021/09/17 01:25:13;;;;;;;1.47;1.40;;;;;;;12.49;89.43;95642.53;5027483;28;20292;-70
2021/09/17 01:27:42;;;;;;;1.80;1.70;;;;;;;12.45;89.46;95636.81;5045538;28;20600;-69
2021/09/17 01:30:12;;;;;;;2.13;1.40;;;;;;;12.36;90.19;95639.81;5021167;28;20733;-70
2021/09/17 01:32:41;;;;;;;1.67;1.57;;;;;;;12.38;89.86;95635.16;5032393;28;20265;-69
2021/09/17 01:35:10;;;;;;;1.90;1.80;;;;;;;12.41;89.71;95635.56;5030880;28;20211;-69
2021/09/17 01:37:39;;;;;;;1.03;1.03;;;;;;;12.36;89.72;95629.25;5032934;28;20222;-69
2021/09/17 01:40:10;;;;;;;1.50;1.40;;;;;;;12.38;89.78;95624.56;5032914;28;20403;-69
2021/09/17 01:42:39;;;;;;;0.70;0.70;;;;;;;12.37;89.79;95626.38;5026369;28;20223;-69
2021/09/17 01:45:10;;;;;;;0.90;0.90;;;;;;;12.35;89.86;95619.66;5039064;28;20641;-69
2021/09/17 01:47:38;;;;;;;1.13;1.13;;;;;;;12.34;89.81;95623.28;5026712;28;20276;-69
2021/09/17 01:50:08;;;;;;;1.17;1.17;;;;;;;12.35;89.91;95632.91;5044322;28;20580;-69
2021/09/17 01:52:36;;;;;;;1.17;1.17;;;;;;;12.34;89.27;95628.59;5041743;28;20249;-70
2021/09/17 01:55:06;;;;;;;1.00;1.00;;;;;;;12.32;89.28;95612.09;5044537;28;20222;-70
2021/09/17 01:57:35;;;;;;;1.47;1.47;;;;;;;12.30;89.38;95622.88;5026565;28;20277;-69
2021/09/17 02:00:05;;;;;;;1.43;1.33;;;;;;;12.32;89.10;95623.50;5046387;28;20620;-69
2021/09/17 02:02:35;;;;;;;2.70;2.03;;;;;;;12.30;88.90;95627.38;5044722;28;20228;-69
2021/09/17 02:05:05;;;;;;;1.43;1.33;;;;;;;12.22;88.78;95623.84;5025190;28;20226;-69
2021/09/17 02:07:34;;;;;;;1.30;1.30;;;;;;;12.13;88.91;95617.09;5041213;28;20773;-69
2021/09/17 02:10:03;;;;;;;2.30;2.20;;;;;;;12.13;89.09;95617.09;5033030;28;20226;-69
2021/09/17 02:12:31;;;;;;;3.03;2.83;;;;;;;12.14;89.13;95613.44;5045338;28;20634;-70
2021/09/17 02:15:02;;;;;;;4.93;4.63;;;;;;;12.07;89.54;95617.88;5037192;28;20225;-70
2021/09/17 02:17:31;;;;;;;4.57;4.27;;;;;;;12.03;89.95;95621.91;5031213;28;20283;-69
2021/09/17 02:19:59;;;;;;;6.23;5.03;;;;;;;12.01;89.97;95616.00;5044335;28;20217;-69
2021/09/17 02:22:29;;;;;;;4.50;4.20;;;;;;;12.05;90.57;95619.06;5022747;28;20280;-69
2021/09/17 02:24:59;;;;;;;5.07;4.40;;;;;;;12.10;90.21;95617.47;5043160;28;20310;-70
2021/09/17 02:27:26;;;;;;;5.07;4.77;;;;;;;12.15;90.02;95620.34;5044400;28;20225;-69
2021/09/17 02:29:54;;;;;;;4.90;4.60;;;;;;;12.21;90.31;95624.06;5040491;28;20229;-69
2021/09/17 02:32:24;;;;;;;4.37;4.10;;;;;;;12.28;90.36;95621.47;5044775;28;20222;-69
2021/09/17 02:34:51;;;;;;;5.10;4.80;;;;;;;12.33;90.45;95621.66;5043619;28;20320;-70
2021/09/17 02:37:20;;;;;;;5.37;5.00;;;;;;;12.40;90.56;95622.53;5035702;28;20301;-70
2021/09/17 02:39:48;;;;;;;5.27;4.87;;;;;;;12.43;90.67;95622.13;5022474;28;20721;-70
2021/09/17 02:42:16;;;;;;;3.60;3.40;;;;;;;12.48;90.38;95614.44;5046544;28;20252;-69
2021/09/17 02:44:44;;;;;;;6.27;5.73;;;;;;;12.57;90.37;95626.47;5043937;28;20222;-69
2021/09/17 02:47:12;;;;;;;5.40;5.00;;;;;;;12.63;90.39;95623.06;5024147;28;20221;-70
2021/09/17 02:49:42;;;;;;;6.60;6.20;;;;;;;12.71;90.46;95620.25;5036187;28;20232;-69
2021/09/17 02:52:10;;;;;;;6.53;6.03;;;;;;;12.79;90.42;95621.88;5035559;28;20746;-69
2021/09/17 02:54:38;;;;;;;7.63;6.93;;;;;;;12.85;90.25;95623.75;5024051;28;20686;-69
2021/09/17 02:57:06;;;;;;;6.57;5.97;;;;;;;12.92;89.88;95626.41;5044234;28;20658;-69
2021/09/17 02:59:33;;;;;;;6.77;6.33;;;;;;;12.96;89.87;95623.16;5044924;28;20222;-69
2021/09/17 03:02:01;;;;;;;7.23;6.53;;;;;;;13.00;89.56;95635.00;5014957;28;20250;-69
2021/09/17 03:04:31;;;;;;;8.00;7.30;;;;;;;13.04;89.69;95630.94;5029252;28;20745;-69
2021/09/17 03:07:01;;;;;;;4.40;4.10;;;;;;;13.07;90.27;95629.69;5034509;28;20225;-69
2021/09/17 03:09:29;;;;;;;11.83;6.87;;;;;;;13.14;89.94;95630.53;5033263;28;20306;-69
2021/09/17 03:11:57;;;;;;;5.33;5.03;;;;;;;13.12;89.56;95622.00;5007035;28;20266;-69
2021/09/17 03:14:25;;;;;;;4.87;4.57;;;;;;;13.08;89.45;95626.06;5024008;28;20305;-69
2021/09/17 03:16:54;;;;;;;5.97;4.37;;;;;;;13.03;89.63;95629.31;5041136;28;20262;-69
2021/09/17 03:19:22;;;;;;;5.03;4.63;;;;;;;13.02;89.77;95627.66;5015194;28;20222;-70
2021/09/17 03:21:50;;;;;;;3.50;3.30;;;;;;;13.02;89.84;95624.19;5041450;28;20223;-69
2021/09/17 03:24:19;;;;;;;3.80;3.50;;;;;;;13.02;89.80;95616.25;5042853;28;20352;-70
2021/09/17 03:26:48;;;;;;;5.23;4.83;;;;;;;12.98;89.84;95621.13;5043193;28;20789;-69
2021/09/17 03:29:16;;;;;;;4.47;4.17;;;;;;;13.01;89.70;95620.75;5040489;28;20227;-70
2021/09/17 03:31:44;;;;;;;4.97;4.67;;;;;;;13.01;89.79;95609.34;5040883;28;20317;-70
2021/09/17 03:34:12;;;;;;;5.10;4.70;;;;;;;13.04;89.53;95619.50;5035888;28;20214;-69
2021/09/17 03:36:42;;;;;;;4.80;4.50;;;;;;;13.06;89.40;95622.78;5041086;28;20262;-69
2021/09/17 03:39:10;;;;;;;5.57;5.23;;;;;;;13.04;89.67;95624.81;5040344;28;20222;-70
2021/09/17 03:41:43;;;;;;;6.70;5.03;;;;;;;12.94;90.10;95619.09;5039030;28;20207;-70
2021/09/17 03:44:11;;;;;;;6.17;5.67;;;;;;;12.99;90.04;95616.66;5035438;28;20306;-70
2021/09/17 03:46:40;;;;;;;7.00;6.50;;;;;;;13.01;90.24;95619.94;5040229;28;20232;-69
2021/09/17 03:49:09;;;;;;;6.67;6.07;;;;;;;12.97;90.44;95624.78;5020703;28;20279;-69
2021/09/17 03:51:37;;;;;;;7.33;6.80;;;;;;;13.04;90.48;95614.22;5044043;28;20218;-69
2021/09/17 03:54:05;;;;;;;6.53;6.03;;;;;;;13.08;90.49;95612.81;5042934;28;20758;-70
2021/09/17 03:56:33;;;;;;;6.03;5.53;;;;;;;13.11;90.57;95615.06;5027941;28;20696;-70
2021/09/17 03:59:02;;;;;;;6.27;5.87;;;;;;;13.19;90.19;95617.56;5039975;28;20218;-70
2021/09/17 04:01:31;;;;;;;5.07;4.67;;;;;;;13.21;90.18;95610.22;5045276;28;20338;-70
2021/09/17 04:03:59;;;;;;;5.40;5.03;;;;;;;13.27;90.29;95614.72;5025997;28;20211;-70
2021/09/17 04:06:27;;;;;;;6.13;5.60;;;;;;;13.30;90.34;95619.59;5041968;28;20226;-69
2021/09/17 04:08:55;;;;;;;6.77;6.07;;;;;;;13.31;90.19;95612.47;5041600;28;20238;-69
2021/09/17 04:11:23;;;;;;;6.47;5.97;;;;;;;13.28;90.45;95611.06;5045858;28;20226;-70
2021/09/17 04:13:51;;;;;;;4.77;4.47;;;;;;;13.34;90.23;95614.72;5026551;28;20314;-69
2021/09/17 04:16:21;;;;;;;7.20;6.67;;;;;;;13.35;90.38;95606.59;5027071;28;20277;-69
2021/09/17 04:18:48;;;;;;;5.93;5.50;;;;;;;13.30;90.34;95614.31;5045240;28;20589;-69
2021/09/17 04:21:17;;;;;;;4.93;4.53;;;;;;;13.32;90.43;95608.81;5040623;28;22495;-69
2021/09/17 04:23:44;;;;;;;5.03;4.73;;;;;;;13.35;90.78;95611.88;5027338;28;20219;-70
2021/09/17 04:26:12;;;;;;;6.07;5.57;;;;;;;13.40;90.46;95608.59;5032620;28;20212;-70
2021/09/17 04:28:41;;;;;;;5.30;4.90;;;;;;;13.42;90.48;95611.06;5039398;28;20230;-70
2021/09/17 04:31:08;;;;;;;7.23;6.53;;;;;;;13.46;90.35;95601.69;5046246;28;20261;-70
2021/09/17 04:33:38;;;;;;;13.37;6.90;;;;;;;13.49;90.41;95611.88;5036395;28;20225;-70
2021/09/17 04:36:06;;;;;;;6.93;6.43;;;;;;;13.52;90.54;95612.28;5041901;28;20716;-69
2021/09/17 04:38:34;;;;;;;8.67;7.67;;;;;;;13.54;90.41;95614.75;5026818;28;20886;-69
2021/09/17 04:41:02;;;;;;;7.20;6.70;;;;;;;13.54;90.70;95610.25;5046416;28;20637;-67
2021/09/17 04:43:31;;;;;;;6.10;5.73;;;;;;;13.55;90.65;95611.09;5039004;28;20673;-67
2021/09/17 04:45:58;;;;;;;7.17;6.57;;;;;;;13.54;90.75;95612.91;5040494;28;20223;-67
2021/09/17 04:48:27;;;;;;;7.67;7.07;;;;;;;13.60;90.82;95608.63;5045021;28;20280;-67
2021/09/17 04:50:56;;;;;;;6.77;6.17;;;;;;;13.63;90.61;95609.03;5039462;28;20310;-67
2021/09/17 04:53:24;;;;;;;6.03;5.53;;;;;;;13.66;90.51;95618.41;5049225;28;20248;-67
2021/09/17 04:55:52;;;;;;;7.63;7.13;;;;;;;13.66;90.65;95607.81;5045297;28;20894;-67
2021/09/17 04:58:41;;;;;;;6.47;6.07;;;;;;;13.69;90.45;95610.03;5042831;28;20753;-67
2021/09/17 05:01:09;;;;;;;6.20;5.70;;;;;;;13.73;90.58;95610.47;5035369;28;20709;-67
2021/09/17 05:03:37;;;;;;;6.17;5.77;;;;;;;13.77;90.38;95609.84;5042797;28;20227;-67
2021/09/17 05:06:06;;;;;;;6.83;6.23;;;;;;;13.83;90.26;95611.69;5043865;28;20249;-68
2021/09/17 05:08:35;;;;;;;7.87;7.33;;;;;;;13.90;89.89;95611.69;5026904;28;20355;-67
2021/09/17 05:11:03;;;;;;;8.17;7.47;;;;;;;13.90;89.85;95615.16;5034715;28;20843;-66
2021/09/17 05:13:31;;;;;;;7.87;7.27;;;;;;;13.91;89.92;95614.13;5042082;28;20242;-67
2021/09/17 05:15:59;;;;;;;8.57;7.87;;;;;;;13.96;89.48;95621.47;5045321;28;20223;-66
2021/09/17 05:18:27;;;;;;;7.47;6.83;;;;;;;13.94;89.63;95619.03;5026778;28;20314;-67
2021/09/17 05:20:55;;;;;;;7.70;7.10;;;;;;;13.93;89.71;95624.53;5026836;28;20219;-67
2021/09/17 05:23:25;;;;;;;7.40;6.87;;;;;;;13.92;89.81;95618.41;5040188;28;20227;-67
2021/09/17 05:25:53;;;;;;;7.47;6.87;;;;;;;13.92;89.96;95613.09;5043419;28;20600;-66
2021/09/17 05:28:21;;;;;;;7.80;7.20;;;;;;;13.93;90.32;95620.03;5037108;28;20237;-67
2021/09/17 05:30:49;;;;;;;8.40;7.87;;;;;;;13.97;90.35;95614.31;5038038;28;20253;-67
2021/09/17 05:33:17;;;;;;;8.60;7.00;;;;;;;14.02;90.13;95617.19;5043749;28;20313;-66
2021/09/17 05:35:46;;;;;;;4.97;4.67;;;;;;;14.03;89.95;95609.00;5041901;28;20643;-66
2021/09/17 05:38:14;;;;;;;7.83;7.23;;;;;;;14.06;90.15;95621.03;5050618;28;20211;-67
2021/09/17 05:40:43;;;;;;;7.03;6.53;;;;;;;14.11;90.16;95623.91;5046117;28;20323;-66
2021/09/17 05:43:11;;;;;;;8.10;7.30;;;;;;;14.13;90.20;95627.16;5043453;28;20272;-67
2021/09/17 05:45:39;;;;;;;5.93;5.53;;;;;;;14.16;89.78;95618.78;5036615;28;20235;-67
2021/09/17 05:48:08;;;;;;;8.60;7.90;;;;;;;14.20;89.73;95625.31;5042898;28;20510;-67
2021/09/17 05:50:36;;;;;;;8.30;7.70;;;;;;;14.22;89.83;95623.25;5042993;28;20218;-67
2021/09/17 05:53:04;;;;;;;8.57;7.93;;;;;;;14.19;90.04;95629.81;5044747;28;20226;-67
2021/09/17 05:55:33;;;;;;;8.23;7.63;;;;;;;14.21;89.93;95618.97;5027204;28;20790;-66
2021/09/17 05:58:02;;;;;;;7.40;6.80;;;;;;;14.31;89.75;95624.69;5042004;28;20228;-67
2021/09/17 06:00:30;;;;;;;6.50;6.10;;;;;;;14.39;89.50;95624.47;5042895;28;20306;-67
2021/09/17 06:02:57;;;;;;;7.77;7.27;;;;;;;14.45;89.42;95621.00;5045047;28;20222;-67
2021/09/17 06:05:25;;;;;;;6.77;6.27;;;;;;;14.50;89.60;95626.50;5043553;28;20222;-67
2021/09/17 06:07:53;;;;;;;7.57;6.90;;;;;;;14.62;89.39;95634.63;5043836;28;20715;-67
2021/09/17 06:10:22;;;;;;;6.83;6.37;;;;;;;14.64;88.90;95629.13;5044578;28;20761;-66
2021/09/17 06:12:50;;;;;;;6.67;6.27;;;;;;;14.68;89.04;95617.03;5042849;28;20241;-67
2021/09/17 06:15:19;;;;;;;6.43;6.00;;;;;;;14.77;88.83;95621.09;5040122;28;20305;-67
2021/09/17 06:17:48;;;;;;;7.07;6.57;;;;;;;14.79;88.90;95625.16;5044218;28;20226;-67
2021/09/17 06:20:16;;;;;;;6.30;5.80;;;;;;;14.84;88.61;95626.38;5045329;28;20223;-67
2021/09/17 06:22:45;;;;;;;8.13;7.53;;;;;;;14.90;88.46;95621.03;5041603;28;20215;-68
2021/09/17 06:25:16;;;;;;;8.00;7.40;;;;;;;14.92;88.11;95623.50;5044709;28;20250;-67
2021/09/17 06:27:44;;;;;;;6.13;5.63;;;;;;;14.98;88.04;95631.41;5042588;28;20231;-66
2021/09/17 06:30:14;;;;;;;7.50;6.87;;;;;;;14.98;87.70;95618.13;5034157;28;20641;-68
2021/09/17 06:32:44;;;;;;;6.57;6.07;;;;;;;15.04;87.58;95622.59;5047407;28;20314;-67
2021/09/17 06:35:13;;;;;;;6.60;6.20;;;;;;;15.09;87.46;95629.94;5040468;28;20277;-66
2021/09/17 06:37:47;;;;;;;6.63;6.23;;;;;;;15.15;87.32;95628.28;5039680;28;20234;-67
2021/09/17 06:40:16;;;;;;;4.77;4.47;;;;;;;15.21;87.13;95627.44;5025433;28;20315;-67
2021/09/17 06:42:44;;;;;;;5.70;5.30;;;;;;;15.29;87.09;95628.00;5041956;28;20250;-66
2021/09/17 06:45:12;;;;;;;6.00;5.60;;;;;;;15.37;86.97;95632.25;5043736;28;20226;-67
2021/09/17 06:47:47;;;;;;;7.80;7.30;;;;;;;15.36;86.48;95628.78;5040868;28;20227;-67
2021/09/17 06:50:18;;;;;;;6.33;5.93;;;;;;;15.45;85.86;95629.31;5026614;28;20689;-67
2021/09/17 06:52:52;;;;;;;4.63;4.33;;;;;;;15.52;86.35;95630.06;5040966;28;20276;-67
2021/09/17 06:55:22;;;;;;;5.67;5.17;;;;;;;15.64;85.37;95628.41;5043316;28;20321;-66
2021/09/17 06:57:53;;;;;;;7.07;6.57;;;;;;;15.74;85.16;95630.59;5041459;28;20245;-68
2021/09/17 07:00:24;;;;;;;6.63;6.07;;;;;;;14.74;88.72;95637.47;5035444;28;20224;-67
2021/09/17 07:02:54;;;;;;;8.17;7.43;;;;;;;14.59;89.71;95635.03;5035129;28;20316;-67
2021/09/17 07:05:23;;;;;;;7.63;6.93;;;;;;;14.60;90.15;95631.38;5026581;28;20231;-67
2021/09/17 07:07:51;;;;;;;7.70;7.10;;;;;;;14.62;90.16;95634.63;5040778;28;20223;-67
2021/09/17 07:10:23;;;;;;;6.23;5.83;;;;;;;14.64;90.55;95629.94;5044384;28;20211;-66
2021/09/17 07:12:51;;;;;;;7.13;6.57;;;;;;;14.74;89.83;95626.84;5042333;28;20230;-67
2021/09/17 07:15:19;;;;;;;7.03;6.53;;;;;;;14.83;90.16;95628.22;5038625;28;20212;-66
2021/09/17 07:17:48;;;;;;;6.57;6.17;;;;;;;14.91;89.24;95638.63;5043187;28;20284;-67
2021/09/17 07:20:17;;;;;;;6.73;6.13;;;;;;;14.91;88.74;95632.50;5041420;28;20658;-69
2021/09/17 07:22:46;;;;;;;6.50;6.00;;;;;;;14.98;88.94;95628.75;5045915;28;20602;-67
2021/09/17 07:25:16;;;;;;;7.30;6.53;;;;;;;14.97;88.65;95631.63;5043027;28;20710;-67
2021/09/17 07:27:44;;;;;;;7.10;6.60;;;;;;;14.97;88.88;95631.63;5042239;28;20317;-66
2021/09/17 07:30:13;;;;;;;5.60;5.30;;;;;;;15.13;88.82;95633.81;5044786;28;20238;-67
2021/09/17 07:32:42;;;;;;;5.27;4.90;;;;;;;15.27;88.51;95634.53;5036219;28;20270;-66
2021/09/17 07:35:15;;;;;;;6.03;5.73;;;;;;;15.35;87.63;95640.41;5044012;28;20227;-68
2021/09/17 07:37:45;;;;;;;6.20;5.80;;;;;;;15.43;87.07;95619.91;5043989;28;20257;-68
2021/09/17 07:40:14;;;;;;;5.00;4.70;;;;;;;15.53;86.82;95631.72;5048165;28;20277;-68
2021/09/17 07:42:44;;;;;;;7.83;6.23;;;;;;;15.68;87.40;95633.28;5045813;28;20261;-66
2021/09/17 07:45:13;;;;;;;5.80;5.40;;;;;;;15.79;87.20;95635.25;5019943;28;20263;-67
2021/09/17 07:47:42;;;;;;;5.20;4.90;;;;;;;15.89;86.95;95624.91;5043770;28;20223;-68
2021/09/17 07:50:12;;;;;;;5.13;4.83;;;;;;;15.97;86.27;95632.63;5048211;28;20313;-68
2021/09/17 07:52:39;;;;;;;5.70;5.30;;;;;;;16.04;85.88;95630.75;5045524;28;20265;-68
2021/09/17 07:55:10;;;;;;;4.97;4.67;;;;;;;15.98;84.34;95631.59;5029788;28;20243;-68
2021/09/17 07:57:39;;;;;;;4.50;4.30;;;;;;;15.98;84.72;95631.59;5045463;28;20719;-68
2021/09/17 08:00:10;;;;;;;5.33;4.93;;;;;;;16.03;84.80;95637.09;5029774;28;20251;-68
2021/09/17 08:02:41;;;;;;;3.97;3.57;;;;;;;16.10;84.98;95637.03;5054763;28;20342;-68
2021/09/17 08:05:14;;;;;;;3.80;3.60;;;;;;;16.23;84.41;95633.44;5021934;28;20638;-68
2021/09/17 08:07:43;;;;;;;3.70;2.57;;;;;;;16.32;84.17;95638.25;5044070;28;20276;-67
2021/09/17 08:10:13;;;;;;;4.27;3.97;;;;;;;16.38;82.29;95624.06;5047226;28;20258;-68
2021/09/17 08:12:41;;;;;;;4.77;4.37;;;;;;;16.28;82.68;95630.94;5046948;28;20222;-67
2021/09/17 08:15:10;;;;;;;3.83;3.63;;;;;;;16.40;82.02;95622.00;5037508;28;20223;-68
2021/09/17 08:17:38;;;;;;;4.00;3.67;;;;;;;16.56;81.11;95633.09;5051256;28;20223;-68
2021/09/17 08:20:08;;;;;;;4.27;4.07;;;;;;;16.60;82.59;95628.94;5045915;28;20653;-67
2021/09/17 08:22:36;;;;;;;12.47;5.23;;;;;;;16.76;81.67;95633.72;5042952;28;20215;-68
2021/09/17 08:25:07;;;;;;;5.50;5.07;;;;;;;16.96;80.63;95620.16;5044506;28;20844;-68
2021/09/17 08:27:37;;;;;;;5.33;5.03;;;;;;;16.93;79.47;95625.94;5046870;28;20227;-68
2021/09/17 08:30:07;;;;;;;4.67;4.07;;;;;;;17.13;79.19;95626.50;5040440;28;20219;-67
2021/09/17 08:32:38;;;;;;;3.97;3.73;;;;;;;17.19;78.64;95636.28;5039472;28;20281;-68
2021/09/17 08:35:08;;;;;;;3.90;3.60;;;;;;;17.38;79.08;95633.56;5042118;28;20219;-68
2021/09/17 08:37:36;;;;;;;3.70;3.50;;;;;;;17.50;78.73;95637.88;5043492;28;20226;-66
2021/09/17 08:40:06;;;;;;;5.17;4.80;;;;;;;17.64;79.13;95633.97;5038549;28;20436;-68
2021/09/17 08:42:36;;;;;;;3.50;3.30;;;;;;;17.89;80.10;95636.47;5046614;28;20257;-68
2021/09/17 08:45:07;;;;;;;4.10;3.90;;;;;;;18.08;78.23;95639.88;5041120;28;20246;-68
2021/09/17 08:47:35;;;;;;;3.53;3.23;;;;;;;18.33;79.47;95636.97;5039188;28;20716;-67
2021/09/17 08:50:06;;;;;;;3.90;3.70;;;;;;;18.52;78.43;95640.34;5010119;28;20220;-68
2021/09/17 08:52:36;;;;;;;3.43;3.13;;;;;;;18.77;77.40;95640.13;5041593;28;20623;-68
2021/09/17 08:55:09;;;;;;;3.20;3.10;;;;;;;18.94;75.07;95638.34;5045366;28;20245;-67
2021/09/17 08:57:38;;;;;;;4.97;4.67;;;;;;;19.08;74.72;95638.06;5045263;28;20719;-68
2021/09/17 09:00:41;;;;;;;3.47;3.17;;;;;;;19.34;75.99;95632.16;5036228;28;20229;-68
2021/09/17 09:03:10;;;;;;;3.97;3.77;;;;;;;19.42;73.20;95633.63;5038624;28;20215;-68
2021/09/17 09:05:41;;;;;;;3.50;3.20;;;;;;;19.31;72.43;95628.09;5044262;28;20273;-68
2021/09/17 09:08:09;;;;;;;3.97;3.77;;;;;;;19.35;72.44;95628.41;5045944;28;20277;-68
2021/09/17 09:10:37;;;;;;;3.37;3.20;;;;;;;19.40;73.39;95625.03;5044052;28;20294;-68
2021/09/17 09:13:07;;;;;;;3.50;3.30;;;;;;;19.40;72.16;95630.38;5044513;28;20227;-68
2021/09/17 09:15:36;;;;;;;2.60;2.50;;;;;;;19.42;72.55;95629.09;5034364;28;20215;-68
2021/09/17 09:18:08;;;;;;;4.20;4.00;;;;;;;19.36;70.39;95619.34;5045104;28;20227;-68
2021/09/17 09:20:39;;;;;;;5.13;4.80;;;;;;;19.34;71.51;95621.44;5040020;28;20215;-68
2021/09/17 09:23:11;;;;;;;2.20;2.10;;;;;;;19.38;72.42;95627.94;5028366;28;20697;-68
2021/09/17 09:25:54;;;;;;;2.97;2.83;;;;;;;19.46;72.29;95619.50;5043255;28;20222;-68
2021/09/17 09:28:28;;;;;;;2.73;2.63;;;;;;;19.49;71.15;95624.41;5045405;28;20222;-68
2021/09/17 09:30:57;;;;;;;2.47;2.37;;;;;;;19.53;72.00;95624.72;5038530;28;20227;-69
2021/09/17 09:33:36;;;;;;;3.73;3.53;;;;;;;19.45;70.37;95614.41;5039471;28;20566;-68
2021/09/17 09:36:08;;;;;;;2.60;2.50;;;;;;;19.50;69.79;95615.31;5028347;28;20237;-67
2021/09/17 09:38:40;;;;;;;2.33;2.23;;;;;;;19.45;69.54;95611.72;5036790;28;20840;-68
2021/09/17 09:41:10;;;;;;;3.47;3.37;;;;;;;19.45;70.33;95609.88;5035458;28;20222;-67
2021/09/17 09:43:42;;;;;;;1.50;1.40;;;;;;;19.55;71.76;95596.66;5042225;28;20654;-68
2021/09/17 09:46:28;;;;;;;2.37;2.27;;;;;;;19.51;69.51;95600.88;5044075;28;20226;-68
2021/09/17 09:49:11;;;;;;;2.70;2.57;;;;;;;19.52;68.24;95597.16;5039179;28;20224;-67
2021/09/17 09:51:42;;;;;;;3.63;3.40;;;;;;;19.50;67.82;95599.25;5042481;28;20242;-67
2021/09/17 09:54:11;;;;;;;2.27;2.17;;;;;;;19.55;69.26;95595.84;5037497;28;20246;-68
2021/09/17 09:56:42;;;;;;;2.50;2.40;;;;;;;19.64;70.13;95593.63;5045656;28;20210;-68
2021/09/17 09:59:11;;;;;;;4.17;3.87;;;;;;;19.69;68.72;95591.03;5049042;28;20219;-68
2021/09/17 10:01:40;;;;;;;3.93;3.73;;;;;;;19.72;69.64;95587.88;5036570;28;20597;-68
2021/09/17 10:04:11;;;;;;;3.93;2.63;;;;;;;19.85;71.02;95592.91;5045128;28;20305;-67
2021/09/17 10:06:40;;;;;;;4.80;3.43;;;;;;;19.72;68.00;95590.53;5039835;28;20314;-68
2021/09/17 10:09:11;;;;;;;9.90;4.00;;;;;;;19.38;67.75;95587.78;5044458;28;20306;-68
2021/09/17 10:11:40;;;;;;;3.83;2.07;;;;;;;19.91;66.85;95586.56;5048175;28;20219;-68
2021/09/17 10:14:13;;;;;;;3.83;2.20;;;;;;;20.78;65.91;95579.78;5036538;28;20219;-68
2021/09/17 10:16:43;;;;;;;3.00;2.77;;;;;;;21.28;63.19;95583.06;5044007;28;20258;-68
2021/09/17 10:19:12;;;;;;;1.80;1.70;;;;;;;21.65;62.27;95573.47;5024340;28;20224;-68
2021/09/17 10:21:55;;;;;;;1.80;1.70;;;;;;;21.82;60.30;95576.84;5033423;28;20229;-67
2021/09/17 10:24:35;;;;;;;1.00;1.00;;;;;;;21.93;58.88;95573.16;5042256;28;20231;-68
2021/09/17 10:27:06;;;;;;;0.97;0.97;;;;;;;21.97;58.75;95573.47;5049161;28;20253;-68
2021/09/17 10:29:37;;;;;;;1.00;1.00;;;;;;;22.00;60.46;95570.28;5042104;28;20302;-68
2021/09/17 10:32:08;;;;;;;6.80;1.33;;;;;;;21.42;58.42;95574.63;5033007;28;20247;-69
2021/09/17 10:34:40;;;;;;;1.80;1.70;;;;;;;21.14;57.18;95576.47;5024599;28;20234;-68
2021/09/17 10:37:10;;;;;;;1.77;1.67;;;;;;;20.82;59.51;95568.28;5036614;28;20719;-68
2021/09/17 10:39:38;;;;;;;1.17;1.17;;;;;;;20.75;60.71;95567.66;5032627;28;20254;-68
2021/09/17 10:42:10;;;;;;;1.33;1.23;;;;;;;20.36;63.04;95566.88;5043120;28;20780;-68
2021/09/17 10:45:15;;;;;;;1.93;1.83;;;;;;;19.94;62.42;95567.34;5038069;28;20230;-68
2021/09/17 10:48:03;;;;;;;1.93;1.83;;;;;;;19.91;60.97;95561.66;5040825;28;20332;-67
2021/09/17 10:50:49;;;;;;;1.50;1.50;;;;;;;19.91;63.39;95562.47;5043551;28;20230;-68
2021/09/17 10:54:02;;;;;;;2.17;2.07;;;;;;;19.54;65.81;95562.91;5037391;28;20261;-68
2021/09/17 10:57:05;;;;;;;4.33;3.10;;;;;;;19.24;64.55;95559.72;5039128;28;20322;-68
2021/09/17 10:59:54;;;;;;;2.30;2.20;;;;;;;19.49;65.30;95557.50;5040333;28;20284;-68
2021/09/17 11:02:40;;;;;;;0.90;0.90;;;;;;;19.89;63.08;95554.69;5021590;28;20250;-66
2021/09/17 11:05:18;;;;;;;2.40;1.47;;;;;;;20.01;61.65;95562.63;5040426;28;20234;-68
2021/09/17 11:07:48;;;;;;;3.10;1.33;;;;;;;20.03;62.97;95560.53;5044515;28;20250;-68
2021/09/17 11:10:25;;;;;;;2.10;2.00;;;;;;;20.07;62.82;95563.50;5034216;28;20318;-68
2021/09/17 11:13:06;;;;;;;2.50;1.07;;;;;;;20.14;61.80;95564.97;5044836;28;20219;-68
2021/09/17 11:15:34;;;;;;;1.57;0.93;;;;;;;20.26;61.32;95558.69;5042364;28;20512;-67
2021/09/17 11:18:08;;;;;;;1.80;1.70;;;;;;;20.41;62.07;95558.91;5045089;28;20228;-67
2021/09/17 11:20:37;;;;;;;1.20;0.70;;;;;;;20.56;62.30;95553.75;5028578;28;20253;-66
2021/09/17 11:23:08;;;;;;;1.60;1.50;;;;;;;20.76;61.97;95558.59;5045275;28;20302;-66
2021/09/17 11:25:38;;;;;;;1.50;0.70;;;;;;;21.14;59.64;95548.81;5027039;28;20226;-68
2021/09/17 11:28:27;;;;;;;0.60;0.60;;;;;;;21.80;60.48;95552.13;5045224;28;20936;-68
2021/09/17 11:31:08;;;;;;;1.23;0.90;;;;;;;22.04;56.31;95541.84;5044748;28;20599;-68
2021/09/17 11:33:36;;;;;;;1.57;1.47;;;;;;;22.11;58.87;95547.78;5050127;28;20677;-68
2021/09/17 11:36:06;;;;;;;0.87;0.87;;;;;;;21.99;54.82;95539.09;5031289;28;20227;-68
2021/09/17 11:38:35;;;;;;;2.30;0.97;;;;;;;21.88;54.05;95542.78;5033283;28;20272;-68
2021/09/17 11:41:03;;;;;;;0.53;0.50;;;;;;;22.01;54.10;95531.56;5032842;28;20265;-68
2021/09/17 11:43:42;;;;;;;0.70;0.70;;;;;;;22.07;53.51;95530.59;5044120;28;20215;-68
2021/09/17 11:46:10;;;;;;;1.30;0.50;;;;;;;22.15;53.13;95527.41;5021665;28;20210;-68
2021/09/17 11:48:39;;;;;;;3.77;1.27;;;;;;;22.07;54.97;95527.91;5022674;28;20226;-68